Moab, UT (84532)

9:31 PM MST on December 22, 2014 (GMT -0700)
Canon Vista | Change Station
CLOSE
Current Station
Personal Weather Station
Location: Moab, UT
Elevation: 4183 ft
Nearby Weather Stations

Elev 4183 ft 38.56 °N, 109.53 °W | Updated 9 seconds ago

Overcast
Overcast
40.8 °F
Feels Like 41 °F
N
1.0
Wind Variable Wind from NW
Gusts 0.0 mph

Today
High -- | Low -- °F
--% Chance of Precip.
Yesterday
High -- | Low -- °F
Precip. -- in
7:32 AM 5:00 PM
New Moon, 2% visible
Pressure 29.98 in
Visibility 10.0 miles
Clouds Overcast 7000 ft
Windchill 41 °F
Dew Point 26 °F
Humidity 54%
Rainfall 0.00 in
Snow Depth Not available.
UV 0 out of 12
Pollen .10 out of 12
Air Quality Not available.
Flu Activity Not available.
METAR KCNY 230353Z AUTO 15006KT 10SM OVC070 03/M02 A2996 RMK AO2 SLP152 T00281022

More Conditions Fewer Conditions

Pressure 29.98 in
Visibility 10.0 miles
Clouds Overcast 7000 ft
Windchill 41 °F
Dew Point 26 °F
Humidity 54%
Rainfall 0.00 in
Snow Depth Not available.
UV 0 out of 12
Pollen .10 out of 12
Air Quality Not available.
Flu Activity Not available.
METAR KCNY 230353Z AUTO 15006KT 10SM OVC070 03/M02 A2996 RMK AO2 SLP152 T00281022

More Conditions Fewer Conditions

10-Day Weather Forecast

Almanac

Astronomy

Dec. 22, 2014 Rise Set
Actual Time
Civil Twilight
Nautical Twilight
Astronomical Twilight
Moon
Length of Visible Light
Length of Day
Tomorrow will be .
, % of the Moon is Illuminated

Today's Extremes

State Highs State Lows

Community

WunderPhotos

Upload Photos

1,779,778 photos uploaded!

WunderBlogs® & News

Nearby

Air Quality

  Air Quality AQ Index Pollutant
Not available.

Snow Depth

Station Depth Elevation

Earthquake Activity

City Distance Mag. Time & Date
Minimum magnitude displayed is 2.5.

Coastal Water Temperatures

Place Temperature

Nearby Weather Stations